Terminal Aerodrome Forecast
Issued by NWS

Home | Current Version | Previous Version | Text Only | Print | Product List | Glossary On
Versions: 1 2 3 4 5 6 7 8 9 10 11 12 13 14 15 16
000
FTUS44 KCRP 282328
TAFALI
TAF
KALI 282328Z 2900/2924 14016G25KT P6SM FEW040
     FM290100 14011KT P6SM FEW015
     FM290800 13006KT P6SM BKN015
      TEMPO 2910/2914 5SM BR SCT015
     FM291400 14014KT P6SM SCT020=

USA.gov is the U.S. government's official web portal to all federal, state and local government web resources and services.